createdAt,value
2016-07-01T00:00:26.306Z,92.63
2016-07-01T00:01:26.912Z,92.54
2016-07-01T00:02:26.302Z,92.63
2016-07-01T00:03:26.926Z,92.44
2016-07-01T00:04:26.913Z,92.63
2016-07-01T00:05:26.901Z,92.54
2016-07-01T00:06:26.344Z,93.02
2016-07-01T00:07:26.906Z,93.11
2016-07-01T00:08:26.905Z,93.02
2016-07-01T00:09:26.290Z,92.54
2016-07-01T00:10:26.302Z,92.82
2016-07-01T00:11:26.282Z,92.73
2016-07-01T00:12:26.289Z,92.73
2016-07-01T00:13:27.296Z,92.92
2016-07-01T00:14:26.903Z,92.92
2016-07-01T00:16:26.883Z,92.73
2016-07-01T00:17:26.892Z,92.73
2016-07-01T00:18:26.890Z,92.63
2016-07-01T00:19:26.893Z,92.73
2016-07-01T00:20:26.273Z,92.63
2016-07-01T00:21:26.876Z,92.63
2016-07-01T00:22:27.083Z,92.73
2016-07-01T00:23:26.426Z,93.21
2016-07-01T00:24:26.632Z,92.82
2016-07-01T00:25:26.876Z,92.82
2016-07-01T00:26:26.877Z,92.82
2016-07-01T00:27:26.263Z,92.92
2016-07-01T00:28:26.872Z,93.02
2016-07-01T00:29:26.867Z,93.02
2016-07-01T00:30:26.258Z,93.4
2016-07-01T00:31:26.870Z,93.59
2016-07-01T00:32:26.863Z,93.4
2016-07-01T00:33:26.866Z,93.3
2016-07-01T00:34:26.256Z,93.49
2016-07-01T00:35:26.244Z,93.4
2016-07-01T00:36:26.254Z,93.21
2016-07-01T00:37:26.246Z,93.3
2016-07-01T00:38:41.123Z,93.49
2016-07-01T00:39:26.861Z,93.11
2016-07-01T00:40:28.329Z,93.59
2016-07-01T00:41:26.248Z,93.59
2016-07-01T00:42:26.353Z,93.4
2016-07-01T00:43:26.853Z,93.4
2016-07-01T00:44:26.842Z,93.78
2016-07-01T00:45:26.550Z,93.49
2016-07-01T00:46:26.238Z,93.88
2016-07-01T00:47:26.837Z,93.88
2016-07-01T00:48:27.707Z,94.07
2016-07-01T00:49:27.561Z,94.07
2016-07-01T00:50:26.843Z,93.78
2016-07-01T00:51:26.989Z,94.02
2016-07-01T00:52:27.470Z,93.83
2016-07-01T00:53:26.833Z,93.88
2016-07-01T00:54:26.220Z,93.69
2016-07-01T00:55:26.233Z,93.93
2016-07-01T00:56:26.829Z,94.4
2016-07-01T00:57:26.828Z,94.12
2016-07-01T00:58:26.828Z,93.93
2016-07-01T00:59:26.219Z,94.35
2016-07-01T01:00:26.251Z,94.35
2016-07-01T01:01:26.227Z,94.12
2016-07-01T01:02:26.207Z,94.31
2016-07-01T01:03:26.213Z,94.21
2016-07-01T01:04:26.819Z,94.02
2016-07-01T01:05:26.828Z,94.12
2016-07-01T01:06:26.817Z,94.12
2016-07-01T01:07:26.206Z,94.12
2016-07-01T01:08:26.202Z,94.4
2016-07-01T01:09:26.804Z,94.4
2016-07-01T01:10:26.211Z,94.69
2016-07-01T01:11:26.802Z,94.79
2016-07-01T01:12:26.200Z,94.69
2016-07-01T01:13:26.805Z,94.69
2016-07-01T01:14:26.195Z,94.31
2016-07-01T01:15:26.814Z,94.4
2016-07-01T01:16:26.190Z,94.6
2016-07-01T01:17:26.186Z,94.5
2016-07-01T01:18:26.211Z,94.4
2016-07-01T01:19:26.791Z,94.31
2016-07-01T01:20:26.212Z,94.31
2016-07-01T01:21:26.794Z,94.12
2016-07-01T01:22:26.789Z,94.31
2016-07-01T01:23:26.186Z,94.5
2016-07-01T01:24:26.794Z,94.5
2016-07-01T01:25:26.773Z,94.6
2016-07-01T01:26:26.178Z,94.69
2016-07-01T01:27:26.783Z,94.6
2016-07-01T01:28:27.006Z,94.74
2016-07-01T01:29:26.166Z,94.31
2016-07-01T01:30:26.791Z,94.98
2016-07-01T01:31:27.170Z,94.98
2016-07-01T01:32:26.408Z,94.98
2016-07-01T01:33:26.766Z,94.98
2016-07-01T01:34:26.818Z,94.89
2016-07-01T01:35:26.778Z,95.17
2016-07-01T01:36:26.770Z,95.27
2016-07-01T01:37:26.886Z,95.17
2016-07-01T01:38:26.773Z,95.17
2016-07-01T01:39:26.162Z,94.98
2016-07-01T01:40:26.750Z,94.98
2016-07-01T01:41:27.104Z,94.89
2016-07-01T01:42:26.746Z,94.89
2016-07-01T01:43:26.549Z,95.07
2016-07-01T01:45:26.764Z,95.27
2016-07-01T01:46:26.166Z,94.98
2016-07-01T01:47:26.755Z,95.07
2016-07-01T01:48:26.152Z,95.17
2016-07-01T01:49:26.745Z,95.27
2016-07-01T01:50:26.746Z,95.07
2016-07-01T01:51:26.137Z,95.56
2016-07-01T01:52:26.140Z,95.27
2016-07-01T01:53:26.131Z,95.46
2016-07-01T01:54:26.138Z,95.07
2016-07-01T01:55:26.731Z,95.46
2016-07-01T01:56:26.736Z,95.65
2016-07-01T01:57:27.839Z,95.46
2016-07-01T01:58:28.065Z,95.27
2016-07-01T01:59:27.315Z,95.27
2016-07-01T02:00:26.116Z,95.27
2016-07-01T02:01:26.122Z,95.27
2016-07-01T02:02:26.721Z,95.27
2016-07-01T02:03:26.872Z,95.27
2016-07-01T02:04:26.108Z,95.46
2016-07-01T02:05:26.116Z,95.17
2016-07-01T02:06:27.351Z,95.17
2016-07-01T02:07:28.005Z,95.27
2016-07-01T02:08:27.198Z,95.07
2016-07-01T02:09:26.838Z,95.36
2016-07-01T02:10:26.113Z,94.98
2016-07-01T02:11:27.276Z,94.98
2016-07-01T02:12:26.092Z,95.75
2016-07-01T02:13:26.710Z,95.36
2016-07-01T02:14:26.702Z,95.46
2016-07-01T02:15:26.720Z,95.65
2016-07-01T02:16:26.749Z,95.75
2016-07-01T02:17:26.710Z,95.75
2016-07-01T02:18:26.695Z,95.75
2016-07-01T02:19:26.693Z,95.65
2016-07-01T02:20:26.691Z,95.84
2016-07-01T02:21:26.093Z,95.46
2016-07-01T02:22:26.696Z,95.65
2016-07-01T02:23:26.080Z,95.56
2016-07-01T02:24:26.077Z,95.56
2016-07-01T02:25:26.071Z,95.36
2016-07-01T02:26:26.073Z,95.56
2016-07-01T02:27:26.079Z,95.65
2016-07-01T02:28:26.063Z,95.56
2016-07-01T02:29:26.070Z,95.84
2016-07-01T02:30:26.082Z,95.46
2016-07-01T02:31:26.077Z,95.94
2016-07-01T02:32:26.674Z,95.46
2016-07-01T02:33:26.060Z,95.94
2016-07-01T02:34:26.695Z,95.94
2016-07-01T02:35:26.064Z,96.13
2016-07-01T02:36:26.661Z,96.03
2016-07-01T02:37:26.660Z,96.13
2016-07-01T02:38:26.665Z,96.03
2016-07-01T02:39:26.655Z,96.22
2016-07-01T02:40:26.686Z,96.03
2016-07-01T02:41:26.046Z,96.13
2016-07-01T02:42:26.650Z,96.03
2016-07-01T02:43:26.039Z,95.94
2016-07-01T02:44:26.647Z,95.94
2016-07-01T02:45:26.036Z,96.13
2016-07-01T02:46:26.090Z,96.13
2016-07-01T02:47:26.667Z,95.84
2016-07-01T02:48:26.645Z,95.94
2016-07-01T02:49:26.888Z,96.42
2016-07-01T02:50:26.644Z,96.42
2016-07-01T02:51:27.045Z,96.42
2016-07-01T02:52:26.185Z,96.03
2016-07-01T02:53:26.029Z,96.42
2016-07-01T02:54:26.624Z,96.42
2016-07-01T02:55:26.623Z,96.42
2016-07-01T02:56:26.012Z,96.51
2016-07-01T02:57:26.018Z,96.51
2016-07-01T02:58:27.149Z,96.32
2016-07-01T02:59:26.164Z,96.42
2016-07-01T03:00:41.190Z,96.42
2016-07-01T03:01:26.007Z,96.13
2016-07-01T03:02:26.010Z,96.32
2016-07-01T03:03:26.662Z,96.22
2016-07-01T03:04:26.009Z,96.32
2016-07-01T03:05:26.011Z,96.61
2016-07-01T03:06:25.998Z,96.89
2016-07-01T03:07:26.606Z,97.09
2016-07-01T03:08:26.599Z,96.8
2016-07-01T03:09:25.995Z,96.89
2016-07-01T03:10:26.606Z,96.7
2016-07-01T03:11:26.597Z,96.7
2016-07-01T03:12:26.011Z,96.51
2016-07-01T03:13:26.601Z,96.99
2016-07-01T03:14:26.597Z,96.99
2016-07-01T03:15:27.456Z,96.8
2016-07-01T03:16:27.106Z,96.99
2016-07-01T03:17:26.726Z,96.84
2016-07-01T03:18:27.021Z,97.14
2016-07-01T03:19:26.594Z,97.33
2016-07-01T03:20:26.052Z,97.33
2016-07-01T03:21:26.020Z,97.23
2016-07-01T03:22:26.577Z,97.14
2016-07-01T03:23:26.583Z,97.23
2016-07-01T03:24:27.304Z,97.33
2016-07-01T03:25:26.590Z,97.23
2016-07-01T03:26:27.254Z,97.14
2016-07-01T03:27:27.298Z,96.94
2016-07-01T03:28:26.251Z,97.23
2016-07-01T03:29:25.972Z,97.23
2016-07-01T03:30:26.572Z,97.14
2016-07-01T03:31:25.965Z,97.33
2016-07-01T03:32:26.574Z,97.09
2016-07-01T03:33:26.576Z,97.38
2016-07-01T03:34:26.559Z,96.99
2016-07-01T03:35:25.961Z,97.09
2016-07-01T03:36:25.958Z,96.8
2016-07-01T03:37:25.965Z,96.8
2016-07-01T03:38:26.583Z,96.8
2016-07-01T03:39:26.550Z,96.89
2016-07-01T03:40:25.946Z,96.8
2016-07-01T03:41:25.940Z,96.7
2016-07-01T03:42:26.560Z,96.99
2016-07-01T03:43:25.946Z,96.51
2016-07-01T03:44:25.942Z,96.32
2016-07-01T03:45:26.582Z,96.32
2016-07-01T03:46:26.545Z,96.8
2016-07-01T03:47:25.953Z,96.42
2016-07-01T03:48:25.936Z,96.32
2016-07-01T03:49:25.933Z,96.7
2016-07-01T03:50:25.931Z,96.32
2016-07-01T03:51:25.933Z,96.32
2016-07-01T03:52:25.937Z,96.22
2016-07-01T03:53:26.543Z,96.32
2016-07-01T03:54:26.536Z,96.32
2016-07-01T03:55:25.929Z,96.32
2016-07-01T03:56:25.921Z,96.32
2016-07-01T03:57:26.538Z,96.32
2016-07-01T03:58:26.532Z,96.42
2016-07-01T03:59:25.919Z,96.42
2016-07-01T04:00:25.924Z,96.99
2016-07-01T04:01:25.911Z,96.89
2016-07-01T04:02:26.569Z,96.99
2016-07-01T04:03:25.922Z,97.33
2016-07-01T04:04:25.919Z,97.38
2016-07-01T04:05:26.527Z,97.47
2016-07-01T04:06:25.915Z,97.33
2016-07-01T04:07:25.918Z,97.28
2016-07-01T04:08:26.563Z,96.89
2016-07-01T04:09:26.521Z,96.66
2016-07-01T04:10:26.828Z,96.7
2016-07-01T04:11:26.674Z,96.32
2016-07-01T04:12:26.216Z,96.27
2016-07-01T04:13:25.911Z,95.55
2016-07-01T04:14:26.527Z,94.64
2016-07-01T04:15:26.529Z,93.72
2016-07-01T04:16:25.919Z,93.14
2016-07-01T04:17:26.027Z,91.74
2016-07-01T04:18:26.025Z,91.4
2016-07-01T04:19:25.930Z,90.09
2016-07-01T04:20:26.797Z,88.31
2016-07-01T04:21:26.387Z,87.67
2016-07-01T04:22:26.555Z,86.42
2016-07-01T04:23:26.547Z,85.3
2016-07-01T04:24:26.568Z,83.99
2016-07-01T04:25:25.966Z,81.9
2016-07-01T04:26:25.965Z,81.07
2016-07-01T04:27:26.582Z,79.62
2016-07-01T04:28:25.981Z,78.79
2016-07-01T04:29:26.581Z,76.99
2016-07-01T04:30:25.987Z,75.57
2016-07-01T04:31:25.990Z,74.74
2016-07-01T04:32:26.613Z,73.09
2016-07-01T04:33:27.469Z,71.38
2016-07-01T04:34:26.006Z,70.15
2016-07-01T04:35:27.438Z,69.28
2016-07-01T04:36:26.630Z,68.25
2016-07-01T04:37:26.026Z,66.89
2016-07-01T04:38:26.780Z,65.56
2016-07-01T04:39:26.655Z,64.33
2016-07-01T04:40:26.698Z,63.87
2016-07-01T04:41:26.065Z,62.71
2016-07-01T04:42:26.073Z,61.28
2016-07-01T04:43:27.462Z,60.63
2016-07-01T04:44:26.952Z,59.39
2016-07-01T04:45:26.163Z,58.61
2016-07-01T04:46:26.248Z,57.57
2016-07-01T04:47:26.733Z,56.82
2016-07-01T04:48:26.744Z,56.52
2016-07-01T04:49:26.154Z,55.29
2016-07-01T04:50:26.139Z,54.05
2016-07-01T04:51:26.170Z,52.97
2016-07-01T04:52:26.174Z,52.7
2016-07-01T04:53:26.172Z,51.76
2016-07-01T04:54:26.188Z,50.71
2016-07-01T04:55:26.197Z,50.12
2016-07-01T04:56:26.821Z,49.26
2016-07-01T04:57:26.222Z,48.21
2016-07-01T04:58:26.223Z,47.53
2016-07-01T04:59:26.847Z,47.33
2016-07-01T05:00:26.872Z,46.57
2016-07-01T05:01:26.882Z,45.69
2016-07-01T05:02:26.888Z,45.13
2016-07-01T05:03:26.885Z,44.54
2016-07-01T05:04:26.903Z,43.88
2016-07-01T05:05:26.914Z,43.58
2016-07-01T05:06:26.932Z,42.52
2016-07-01T05:07:26.717Z,42.23
2016-07-01T05:08:26.340Z,41.76
2016-07-01T05:09:26.375Z,40.78
2016-07-01T05:10:26.987Z,40.7
2016-07-01T05:11:26.989Z,40.21
2016-07-01T05:12:26.386Z,39.45
2016-07-01T05:13:27.034Z,39.25
2016-07-01T05:14:26.426Z,38.48
2016-07-01T05:15:27.043Z,38.07
2016-07-01T05:16:27.044Z,38.07
2016-07-01T05:17:27.062Z,38.07
2016-07-01T05:18:26.470Z,37.9
2016-07-01T05:19:26.482Z,37.9
2016-07-01T05:20:26.496Z,37.23
2016-07-01T05:21:27.115Z,36.54
2016-07-01T05:22:27.132Z,36.16
2016-07-01T05:23:26.594Z,34.9
2016-07-01T05:24:27.159Z,35.2
2016-07-01T05:25:27.186Z,34.72
2016-07-01T05:26:27.542Z,33.84
2016-07-01T05:27:27.710Z,33.86
2016-07-01T05:28:27.426Z,33.18
2016-07-01T05:29:27.247Z,32.39
2016-07-01T05:30:27.244Z,32.41
2016-07-01T05:31:26.647Z,31.92
2016-07-01T05:32:27.365Z,31.34
2016-07-01T05:33:27.293Z,31.44
2016-07-01T05:34:26.707Z,30.75
2016-07-01T05:35:28.266Z,30.35
2016-07-01T05:36:26.725Z,30.26
2016-07-01T05:37:26.729Z,30.06
2016-07-01T05:38:26.752Z,29.48
2016-07-01T05:39:26.963Z,29.58
2016-07-01T05:40:26.944Z,29.78
2016-07-01T05:41:27.412Z,29
2016-07-01T05:42:27.429Z,28.82
2016-07-01T05:43:27.469Z,28.23
2016-07-01T05:44:26.852Z,28.33
2016-07-01T05:45:27.470Z,28.24
2016-07-01T05:46:27.488Z,27.47
2016-07-01T05:47:26.893Z,27.07
2016-07-01T05:48:26.907Z,25.98
2016-07-01T05:49:26.931Z,26.67
2016-07-01T05:52:27.594Z,26.38
2016-07-01T05:53:26.994Z,26.17
2016-07-01T05:54:27.619Z,25.87
2016-07-01T05:55:28.317Z,25.59
2016-07-01T05:56:27.051Z,25.49
2016-07-01T05:57:27.062Z,25.79
2016-07-01T05:58:27.688Z,24.91
2016-07-01T05:59:27.714Z,24.99
2016-07-01T06:00:27.711Z,24.69
2016-07-01T06:01:27.748Z,24.8
2016-07-01T06:02:28.569Z,24.69
2016-07-01T06:03:27.854Z,25.09
2016-07-01T06:04:27.175Z,24.61
2016-07-01T06:05:27.982Z,24.71
2016-07-01T06:06:28.329Z,24.51
2016-07-01T06:07:27.656Z,23.72
2016-07-01T06:08:27.861Z,24.3
2016-07-01T06:09:27.874Z,24.01
2016-07-01T06:10:27.887Z,23.81
2016-07-01T06:11:27.908Z,24.09
2016-07-01T06:12:27.952Z,23.61
2016-07-01T06:13:27.338Z,23.62
2016-07-01T06:14:27.968Z,23.72
2016-07-01T06:15:27.987Z,23.43
2016-07-01T06:16:27.388Z,23.13
2016-07-01T06:17:28.042Z,23.33
2016-07-01T06:18:28.041Z,22.74
2016-07-01T06:19:27.438Z,23.04
2016-07-01T06:20:27.467Z,22.55
2016-07-01T06:21:27.482Z,22.55
2016-07-01T06:22:28.133Z,22.25
2016-07-01T06:23:27.517Z,22.64
2016-07-01T06:24:28.151Z,21.96
2016-07-01T06:25:28.197Z,22.37
2016-07-01T06:26:27.574Z,21.78
2016-07-01T06:27:28.196Z,21.97
2016-07-01T06:28:28.233Z,21.89
2016-07-01T06:29:27.642Z,21.39
2016-07-01T06:30:27.662Z,21.29
2016-07-01T06:31:27.679Z,21.4
2016-07-01T06:32:28.343Z,20.9
2016-07-01T06:33:28.306Z,20.89
2016-07-01T06:34:27.721Z,21.29
2016-07-01T06:35:27.739Z,21.49
2016-07-01T06:36:28.369Z,21.19
2016-07-01T06:37:28.408Z,21
2016-07-01T06:38:27.793Z,20.89
2016-07-01T06:39:28.410Z,20.89
2016-07-01T06:40:28.449Z,20.6
2016-07-01T06:41:28.462Z,20.59
2016-07-01T06:42:28.481Z,20.7
2016-07-01T06:43:28.492Z,20.89
2016-07-01T06:44:29.312Z,20.79
2016-07-01T06:45:28.551Z,20.4
2016-07-01T06:46:28.402Z,20.5
2016-07-01T06:47:28.566Z,20.11
2016-07-01T06:48:28.591Z,20.01
2016-07-01T06:49:27.990Z,20.1
2016-07-01T06:50:28.023Z,19.9
2016-07-01T06:51:28.033Z,20
2016-07-01T06:52:28.056Z,19.81
2016-07-01T06:53:29.175Z,20
2016-07-01T06:54:28.981Z,20.09
2016-07-01T06:55:28.118Z,20.48
2016-07-01T06:56:28.739Z,20.38
2016-07-01T06:57:28.763Z,20.57
2016-07-01T06:58:28.806Z,20.57
2016-07-01T06:59:29.038Z,20.57
2016-07-01T07:00:28.808Z,20.86
2016-07-01T07:01:28.211Z,20.86
2016-07-01T07:02:28.838Z,21.14
2016-07-01T07:03:28.871Z,21.42
2016-07-01T07:04:28.880Z,21.13
2016-07-01T07:05:28.892Z,21.53
2016-07-01T07:06:28.927Z,21.53
2016-07-01T07:07:28.323Z,21.72
2016-07-01T07:08:28.342Z,21.24
2016-07-01T07:09:28.353Z,21.53
2016-07-01T07:10:29.013Z,21.23
2016-07-01T07:12:30.512Z,21.61
2016-07-01T07:13:29.476Z,21.42
2016-07-01T07:14:29.052Z,21.61
2016-07-01T07:15:29.409Z,21.81
2016-07-01T07:16:28.555Z,22.2
2016-07-01T07:17:28.501Z,22.09
2016-07-01T07:18:28.526Z,21.8
2016-07-01T07:19:29.141Z,22.78
2016-07-01T07:20:29.903Z,22.28
2016-07-01T07:21:29.401Z,22.38
2016-07-01T07:22:28.983Z,22.58
2016-07-01T07:23:29.214Z,22.28
2016-07-01T07:24:29.398Z,22.78
2016-07-01T07:25:28.642Z,22.67
2016-07-01T07:26:28.669Z,22.78
2016-07-01T07:27:29.277Z,22.58
2016-07-01T07:28:28.685Z,22.58
2016-07-01T07:29:29.320Z,22.96
2016-07-01T07:30:29.330Z,23.05
2016-07-01T07:31:29.349Z,23.64
2016-07-01T07:32:28.762Z,23.63
2016-07-01T07:33:29.388Z,23.73
2016-07-01T07:34:28.781Z,23.83
2016-07-01T07:35:28.827Z,23.63
2016-07-01T07:36:28.827Z,23.73
2016-07-01T07:37:29.451Z,23.73
2016-07-01T07:38:28.862Z,24.01
2016-07-01T07:39:29.476Z,24.3
2016-07-01T07:40:29.500Z,24.6
2016-07-01T07:41:29.511Z,24.3
2016-07-01T07:42:29.539Z,24.21
2016-07-01T07:43:28.934Z,24.3
2016-07-01T07:44:29.565Z,24.11
2016-07-01T07:45:29.580Z,24.01
2016-07-01T07:46:29.599Z,24.51
2016-07-01T07:47:29.657Z,24.11
2016-07-01T07:48:29.018Z,24.29
2016-07-01T07:49:29.042Z,24.1
2016-07-01T07:50:29.665Z,24.4
2016-07-01T07:51:29.683Z,24.4
2016-07-01T07:52:29.093Z,24.49
2016-07-01T07:53:29.710Z,24.59
2016-07-01T07:54:29.725Z,24.69
2016-07-01T07:55:29.747Z,24.79
2016-07-01T07:56:29.766Z,24.88
2016-07-01T07:57:29.171Z,24.9
2016-07-01T07:58:29.801Z,24.49
2016-07-01T07:59:29.821Z,24.49
2016-07-01T08:00:29.831Z,24.51
2016-07-01T08:01:29.853Z,24.69
2016-07-01T08:02:44.123Z,24.59
2016-07-01T08:03:30.522Z,24.69
2016-07-01T08:04:30.196Z,24.79
2016-07-01T08:05:29.321Z,24.98
2016-07-01T08:06:30.673Z,24.98
2016-07-01T08:07:29.951Z,24.7
2016-07-01T08:08:29.969Z,24.41
2016-07-01T08:09:29.371Z,24.41
2016-07-01T08:10:29.387Z,24.63
2016-07-01T08:11:30.015Z,24.04
2016-07-01T08:12:30.488Z,23.63
2016-07-01T08:13:29.889Z,24.12
2016-07-01T08:14:29.456Z,24.12
2016-07-01T08:15:29.493Z,24.21
2016-07-01T08:16:30.111Z,24.3
2016-07-01T08:17:29.811Z,24.29
2016-07-01T08:18:29.533Z,24.4
2016-07-01T08:19:29.546Z,24.4
2016-07-01T08:20:29.561Z,24.49
2016-07-01T08:21:29.586Z,24.59
2016-07-01T08:22:29.593Z,24.41
2016-07-01T08:23:29.609Z,24.59
2016-07-01T08:24:29.629Z,24.4
2016-07-01T08:25:30.255Z,24.69
2016-07-01T08:26:29.678Z,24.59
2016-07-01T08:27:29.672Z,24.68
2016-07-01T08:28:30.826Z,24.58
2016-07-01T08:29:30.735Z,24.97
2016-07-01T08:30:46.177Z,24.96
2016-07-01T08:31:29.894Z,25.24
2016-07-01T08:32:29.775Z,24.86
2016-07-01T08:33:29.792Z,25.04
2016-07-01T08:34:30.410Z,25.24
2016-07-01T08:35:30.431Z,25.34
2016-07-01T08:36:30.446Z,25.24
2016-07-01T08:38:31.274Z,25.24
2016-07-01T08:39:31.205Z,25.23
2016-07-01T08:40:29.905Z,25.44
2016-07-01T08:41:30.524Z,25.23
2016-07-01T08:42:30.544Z,25.43
2016-07-01T08:43:30.971Z,25.62
2016-07-01T08:44:30.799Z,25.44
2016-07-01T08:45:29.984Z,25.44
2016-07-01T08:46:30.618Z,26.11
2016-07-01T08:47:30.027Z,26.41
2016-07-01T08:48:30.038Z,26.01
2016-07-01T08:49:30.655Z,26.11
2016-07-01T08:50:30.078Z,26.32
2016-07-01T08:51:30.687Z,26.52
2016-07-01T08:52:30.942Z,25.94
2016-07-01T08:53:30.726Z,25.56
2016-07-01T08:54:30.741Z,25.07
2016-07-01T08:55:30.148Z,25.27
2016-07-01T08:56:30.776Z,24.97
2016-07-01T08:57:30.794Z,25.27
2016-07-01T08:58:30.191Z,25.27
2016-07-01T08:59:30.214Z,24.97
2016-07-01T09:00:30.238Z,24.57
2016-07-01T09:01:30.876Z,24.85
2016-07-01T09:02:30.880Z,24.85
2016-07-01T09:03:30.894Z,25.23
2016-07-01T09:04:30.913Z,24.84
2016-07-01T09:05:30.934Z,25.42
2016-07-01T09:06:30.325Z,25.31
2016-07-01T09:07:30.351Z,25.5
2016-07-01T09:08:30.359Z,25.98
2016-07-01T09:09:30.988Z,26.26
2016-07-01T09:10:30.997Z,25.96
2016-07-01T09:11:31.011Z,26.15
2016-07-01T09:12:31.021Z,26.54
2016-07-01T09:13:30.429Z,26.73
2016-07-01T09:14:30.450Z,26.44
2016-07-01T09:15:31.135Z,26.82
2016-07-01T09:16:30.476Z,27.11
2016-07-01T09:17:30.487Z,26.72
2016-07-01T09:18:31.101Z,27.59
2016-07-01T09:19:31.120Z,27.98
2016-07-01T09:20:30.549Z,28.36
2016-07-01T09:23:31.276Z,28.85
2016-07-01T09:24:30.583Z,29.22
2016-07-01T09:25:30.590Z,29.22
2016-07-01T09:26:30.941Z,29.52
2016-07-01T09:27:31.214Z,30
2016-07-01T09:28:31.226Z,30.2
2016-07-01T09:29:31.234Z,29.9
2016-07-01T09:30:31.446Z,30.09
2016-07-01T09:32:31.019Z,30.08
2016-07-01T09:33:30.659Z,30.08
2016-07-01T09:34:31.342Z,30.47
2016-07-01T09:35:30.785Z,30.16
2016-07-01T09:36:31.304Z,30.45
2016-07-01T09:37:30.713Z,30.45
2016-07-01T09:38:31.328Z,30.35
2016-07-01T09:39:31.369Z,30.74
2016-07-01T09:40:31.363Z,30.94
2016-07-01T09:41:31.373Z,31.04
2016-07-01T09:42:31.375Z,31.02
2016-07-01T09:43:30.763Z,30.93
2016-07-01T09:44:30.789Z,31.12
2016-07-01T09:45:30.786Z,31.22
2016-07-01T09:46:30.814Z,31.22
2016-07-01T09:47:31.429Z,31.12
2016-07-01T09:48:31.441Z,31.23
2016-07-01T09:49:32.445Z,31.33
2016-07-01T09:50:30.837Z,31.12
2016-07-01T09:51:30.837Z,31.31
2016-07-01T09:52:30.852Z,31.02
2016-07-01T09:53:31.467Z,31.02
2016-07-01T09:54:31.474Z,31.22
2016-07-01T09:55:31.483Z,31.12
2016-07-01T09:56:31.378Z,31.31
2016-07-01T09:57:32.469Z,31.31
2016-07-01T09:58:31.980Z,31.7
2016-07-01T09:59:30.910Z,31.13
2016-07-01T10:00:31.015Z,31.31
2016-07-01T10:01:30.933Z,31.7
2016-07-01T10:02:31.881Z,31.92
2016-07-01T10:03:31.583Z,31.82
2016-07-01T10:04:30.959Z,31.82
2016-07-01T10:05:31.586Z,31.82
2016-07-01T10:06:30.979Z,31.72
2016-07-01T10:07:30.990Z,31.72
2016-07-01T10:08:30.999Z,31.92
2016-07-01T10:09:31.615Z,31.74
2016-07-01T10:10:31.022Z,31.54
2016-07-01T10:11:31.641Z,31.45
2016-07-01T10:12:31.041Z,31.15
2016-07-01T10:13:31.661Z,31.35
2016-07-01T10:14:31.658Z,31.54
2016-07-01T10:15:31.674Z,31.25
2016-07-01T10:16:31.676Z,31.25
2016-07-01T10:17:31.083Z,31.15
2016-07-01T10:18:31.702Z,31.74
2016-07-01T10:19:31.707Z,31.35
2016-07-01T10:20:31.117Z,31.64
2016-07-01T10:21:31.114Z,31.74
2016-07-01T10:22:31.729Z,31.74
2016-07-01T10:23:31.137Z,31.84
2016-07-01T10:24:31.762Z,31.25
2016-07-01T10:25:31.767Z,31.15
2016-07-01T10:26:31.773Z,31.15
2016-07-01T10:27:31.182Z,31.25
2016-07-01T10:28:31.808Z,31.15
2016-07-01T10:29:31.248Z,31.26
2016-07-01T10:30:31.209Z,31.25
2016-07-01T10:31:31.822Z,31.54
2016-07-01T10:32:31.838Z,31.45
2016-07-01T10:33:31.835Z,31.25
2016-07-01T10:34:31.254Z,31.35
2016-07-01T10:35:31.247Z,31.72
2016-07-01T10:36:31.263Z,31.72
2016-07-01T10:37:31.892Z,31.7
2016-07-01T10:38:31.922Z,31.8
2016-07-01T10:39:32.691Z,32.19
2016-07-01T10:40:32.955Z,32.48
2016-07-01T10:41:31.310Z,32.39
2016-07-01T10:42:32.212Z,32.78
2016-07-01T10:43:31.928Z,32.58
2016-07-01T10:44:31.938Z,32.39
2016-07-01T10:45:31.942Z,32.39
2016-07-01T10:46:31.346Z,32.09
2016-07-01T10:47:31.353Z,31.51
2016-07-01T10:48:32.622Z,31.9
2016-07-01T10:50:31.834Z,32.48
2016-07-01T10:51:32.001Z,32.58
2016-07-01T10:52:32.363Z,32.58
2016-07-01T10:53:32.029Z,32.58
2016-07-01T10:54:32.050Z,32.39
2016-07-01T10:55:31.427Z,32.39
2016-07-01T10:56:31.436Z,32.29
2016-07-01T10:57:31.444Z,32.19
2016-07-01T10:58:31.459Z,32.39
2016-07-01T10:59:32.091Z,32.29
2016-07-01T11:00:31.485Z,32.09
2016-07-01T11:01:32.092Z,32.09
2016-07-01T11:02:31.489Z,32.29
2016-07-01T11:03:31.510Z,32.48
2016-07-01T11:04:31.509Z,31.99
2016-07-01T11:05:33.159Z,31.99
2016-07-01T11:06:32.131Z,32.39
2016-07-01T11:07:31.538Z,32.19
2016-07-01T11:08:32.162Z,32.39
2016-07-01T11:09:31.669Z,32.39
2016-07-01T11:10:32.069Z,31.99
2016-07-01T11:11:31.578Z,32.39
2016-07-01T11:12:32.210Z,32.29
2016-07-01T11:13:31.595Z,32.29
2016-07-01T11:14:31.598Z,32.09
2016-07-01T11:15:33.610Z,32.29
2016-07-01T11:16:32.219Z,32.4
2016-07-01T11:17:32.276Z,32.31
2016-07-01T11:18:33.084Z,32.5
2016-07-01T11:19:31.646Z,32.01
2016-07-01T11:20:32.271Z,31.92
2016-07-01T11:21:32.279Z,31.84
2016-07-01T11:22:31.676Z,31.62
2016-07-01T11:23:31.675Z,31.54
2016-07-01T11:24:32.306Z,31.64
2016-07-01T11:25:32.317Z,31.45
2016-07-01T11:26:31.723Z,31.35
2016-07-01T11:27:32.326Z,30.76
2016-07-01T11:28:31.746Z,30.66
2016-07-01T11:29:32.363Z,30.18
2016-07-01T11:30:32.348Z,30.29
2016-07-01T11:31:32.384Z,30.38
2016-07-01T11:32:31.769Z,30.29
2016-07-01T11:33:31.771Z,30.29
2016-07-01T11:34:32.397Z,30.09
2016-07-01T11:35:31.827Z,30.58
2016-07-01T11:36:31.809Z,30.29
2016-07-01T11:37:32.431Z,30.09
2016-07-01T11:38:31.826Z,30.58
2016-07-01T11:39:32.442Z,30.09
2016-07-01T11:40:32.442Z,30.58
2016-07-01T11:41:31.853Z,30.48
2016-07-01T11:42:32.473Z,30.48
2016-07-01T11:43:31.876Z,30.48
2016-07-01T11:44:31.886Z,30.48
2016-07-01T11:45:32.501Z,30.38
2016-07-01T11:46:32.516Z,30.38
2016-07-01T11:47:32.507Z,30.19
2016-07-01T11:48:31.911Z,30.29
2016-07-01T11:49:32.545Z,30.09
2016-07-01T11:50:31.934Z,30.29
2016-07-01T11:51:32.559Z,30.09
2016-07-01T11:52:31.967Z,29.99
2016-07-01T11:53:32.575Z,29.9
2016-07-01T11:54:31.982Z,29.81
2016-07-01T11:55:31.986Z,30.1
2016-07-01T11:56:32.598Z,29.91
2016-07-01T11:57:32.449Z,29.5
2016-07-01T11:58:32.630Z,29.42
2016-07-01T11:59:33.029Z,29.71
2016-07-01T12:00:33.551Z,29.24
2016-07-01T12:01:33.304Z,29.44
2016-07-01T12:02:32.063Z,29.34
2016-07-01T12:03:32.061Z,29.14
2016-07-01T12:04:32.064Z,29.24
2016-07-01T12:05:32.702Z,29.06
2016-07-01T12:06:47.022Z,28.86
2016-07-01T12:08:33.119Z,28.86
2016-07-01T12:09:33.326Z,28.39
2016-07-01T12:10:32.122Z,28.68
2016-07-01T12:11:47.011Z,28.09
2016-07-01T12:12:32.145Z,27.91
2016-07-01T12:13:32.161Z,28.01
2016-07-01T12:14:32.771Z,27.91
2016-07-01T12:15:32.171Z,27.62
2016-07-01T12:16:32.808Z,27.42
2016-07-01T12:17:32.810Z,27.4
2016-07-01T12:18:32.212Z,27.01
2016-07-01T12:19:32.842Z,27.03
2016-07-01T12:20:32.841Z,27.61
2016-07-01T12:21:32.853Z,27.62
2016-07-01T12:22:32.859Z,27.33
2016-07-01T12:23:33.460Z,27.5
2016-07-01T12:24:32.919Z,27.61
2016-07-01T12:25:33.888Z,27.8
2016-07-01T12:26:33.489Z,27.7
2016-07-01T12:27:33.309Z,28.39
2016-07-01T12:28:32.311Z,28.28
2016-07-01T12:29:32.313Z,28.08
2016-07-01T12:30:32.942Z,27.88
2016-07-01T12:31:32.949Z,28.08
2016-07-01T12:33:34.250Z,28.18
2016-07-01T12:34:33.130Z,27.98
2016-07-01T12:35:33.449Z,28.39
2016-07-01T12:36:33.787Z,28.09
2016-07-01T12:37:33.010Z,27.88
2016-07-01T12:38:33.571Z,28.08
2016-07-01T12:39:32.415Z,28.28
2016-07-01T12:40:32.426Z,28.67
2016-07-01T12:41:33.054Z,28.65
2016-07-01T12:42:32.445Z,28.36
2016-07-01T12:43:33.075Z,28.65
2016-07-01T12:44:32.469Z,28.74
2016-07-01T12:45:32.476Z,28.93
2016-07-01T12:46:32.491Z,29.52
2016-07-01T12:47:33.116Z,29.8
2016-07-01T12:48:33.113Z,29.41
2016-07-01T12:49:32.511Z,29.99
2016-07-01T12:50:33.133Z,29.79
2016-07-01T12:51:33.149Z,30.08
2016-07-01T12:52:33.161Z,29.88
2016-07-01T12:53:32.564Z,30.08
2016-07-01T12:54:32.558Z,30.37
2016-07-01T12:55:33.182Z,30.27
2016-07-01T12:56:33.203Z,30.37
2016-07-01T12:57:32.603Z,30.47
2016-07-01T12:58:33.219Z,30.47
2016-07-01T12:59:33.233Z,30.18
2016-07-01T13:00:33.223Z,29.98
2016-07-01T13:01:33.239Z,29.69
2016-07-01T13:02:33.250Z,29.6
2016-07-01T13:03:33.270Z,29.7
2016-07-01T13:04:33.266Z,29.21
2016-07-01T13:05:32.671Z,29.6
2016-07-01T13:06:33.293Z,29.5
2016-07-01T13:07:32.736Z,29.6